Flight Track Log - Related Links

Times and Time Zones

All times are in EDT time to prevent confusion due to time zone crossing. See the EJA929 flight status page for this flight to view local times or setup timezone preferences in your user account.

Time Position Orientation Groundspeed Altitude Reporting Facility
EDT Latitude Longitude Course Direction KTS MPH feet Rate Location/Type
Thu 04:37:13 PM 41.8333 -87.7667 281° West 212 244 3,000  Level Chicago TRACON
Thu 04:38:13 PM 41.8167 -87.8500 255° West 217 250 3,000  Level Chicago TRACON
Thu 04:39:07 PM 41.7956 -87.9058 243° Southwest 215 247 3,000  Level Chicago Center
Thu 04:40:09 PM 41.7733 -87.9781 248° West 213 245 3,000  Level Chicago Center
Thu 04:41:11 PM 41.7686 -88.0578 265° West 218 251 3,000 194 Level Chicago Center
Thu 04:42:00 PM 41.8530 -88.5045 281° West  Level FlightAware Approximate
Thu 04:42:13 PM 41.7872 -88.1475 286° West 215 247 3,400  Level Chicago Center
Thu 04:43:15 PM 41.8067 -88.2253 289° West 218 251 6,800 3,194 Climbing Chicago Center
Thu 04:44:17 PM 41.8117 -88.3231 274° West 257 296 10,000 2,661 Climbing Chicago Center
Thu 04:45:19 PM 41.8147 -88.4361 272° West 295 339 12,300 2,419 Climbing Chicago Center
Thu 04:46:21 PM 41.8183 -88.5836 272° West 327 376 15,000 2,419 Climbing Chicago Center
Thu 04:47:23 PM 41.8197 -88.7097 271° West 339 390 17,300 1,452 Climbing Chicago Center
Thu 04:48:25 PM 41.8431 -88.8350 284° West 347 399 18,000 336 Climbing Chicago Center
Thu 04:49:28 PM 41.8772 -88.9744 288° West 390 449 18,000 288 Level Chicago Center
Thu 04:50:30 PM 41.9239 -89.1094 295° West 399 459 18,600 871 Climbing Chicago Center
Thu 04:51:32 PM 41.9892 -89.2572 301° West 389 448 19,800 1,016 Climbing Chicago Center
Thu 04:52:34 PM 42.0422 -89.3800 300° West 384 442 20,700 1,113 Climbing Chicago Center
Thu 04:53:36 PM 42.0878 -89.5144 295° West 370 426 22,100 1,306 Climbing Chicago Center
Thu 04:54:38 PM 42.1239 -89.6517 290° West 384 442 23,400 919 Climbing Chicago Center
Thu 04:55:40 PM 42.1617 -89.7900 290° West 389 448 24,000 290 Climbing Chicago Center
Thu 04:56:42 PM 42.2050 -89.9508 290° West 420 483 24,000  Level Chicago Center
Thu 04:57:44 PM 42.2444 -90.1017 290° West 428 493 24,000  Level Chicago Center
Thu 04:58:46 PM 42.2847 -90.2531 290° West 431 496 24,000  Level Chicago Center
Thu 04:59:49 PM 42.3236 -90.4031 289° West 427 491 24,000  Level Chicago Center
Thu 05:00:51 PM 42.3606 -90.5514 289° West 422 486 24,000  Level Chicago Center
Thu 05:01:53 PM 42.4153 -90.7242 293° West 421 484 24,000  Level Chicago Center
Thu 05:02:55 PM 42.5017 -90.8239 320° Northwest 415 478 24,000  Level Chicago Center
Thu 05:03:57 PM 42.5875 -90.9217 320° Northwest 410 472 24,000  Level Chicago Center
Thu 05:04:59 PM 42.6714 -91.0203 319° Northwest 406 467 24,000  Level Chicago Center
Thu 05:06:01 PM 42.7767 -91.1406 320° Northwest 414 476 24,000  Level Chicago Center
Thu 05:07:03 PM 42.8622 -91.2414 319° Northwest 415 478 24,000  Level Chicago Center
Thu 05:08:05 PM 42.9472 -91.3417 319° Northwest 413 475 24,000  Level Chicago Center
Thu 05:09:08 PM 43.0328 -91.4419 319° Northwest 414 476 24,000 -48 Level Chicago Center
Thu 05:10:10 PM 43.1336 -91.5639 319° Northwest 411 473 23,900 -1,210 Descending Chicago Center
Thu 05:11:12 PM 43.2158 -91.6617 319° Northwest 401 461 21,500 -2,371 Descending Chicago Center
Thu 05:12:14 PM 43.2936 -91.7556 319° Northwest 384 442 19,000 -2,371 Descending Chicago Center
Thu 05:13:16 PM 43.3747 -91.8514 319° Northwest 385 443 16,600 -2,371 Descending Chicago Center
Thu 05:14:18 PM 43.4558 -91.9494 319° Northwest 391 450 14,100 -2,661 Descending Chicago Center
Thu 05:15:20 PM 43.5497 -92.0742 316° Northwest 394 453 11,100 -2,081 Descending Chicago Center
Thu 05:16:22 PM 43.6064 -92.1694 309° West 341 392 9,800 -2,256 Descending Chicago Center
Thu 05:17:25 PM 43.6772 -92.2322 327° Northwest 263 303 6,400 -2,544 Descending Minneapolis Center
Thu 05:18:27 PM 43.7375 -92.2925 324° Northwest 271 312 4,500 -1,645 Descending Minneapolis Center
Thu 05:19:29 PM 43.8003 -92.3556 324° Northwest 261 300 3,000 -816 Descending Minneapolis Center
Thu 05:20:32 PM 43.8458 -92.4006 325° Northwest 204 235 2,800 -384 Descending Minneapolis Center
Thu 05:21:34 PM 43.8750 -92.4439 313° West 149 171 2,200 -629 Descending Minneapolis Center
Thu 05:22:36 PM 43.8994 -92.4808 313° West 135 155 1,500 -435 Descending Minneapolis Center
Thu 05:23:38 PM 43.9244 -92.5203 311° West 135 155 1,300 -194 Descending Minneapolis Center
Thu 05:25:00 PM 43.9000 -92.5000 144° Southeast  Level FlightAware Approximate

Login

Don't have an account? Register now (free) for customized features, flight alerts, and more!